Terminal Aerodrome Forecast
Issued by NWS Sterling, VA

Home | Current Version | Previous Version | Text Only | Print | Product List | Glossary On
Versions: 1 2 3 4 5 6 7 8 9 10 11 12 13 14
000
FTUS41 KLWX 231100
TAFCHO
TAF
KCHO 231129Z 2312/2412 31010G20KT P6SM SCT100 BKN250
     FM231500 32011KT P6SM FEW250
     FM240000 32007KT P6SM FEW250=

USA.gov is the U.S. government's official web portal to all federal, state and local government web resources and services.